Terminal Aerodrome Forecast
Issued by NWS Denver/Boulder, CO

Home | Current Version | Previous Version | Text Only | Print | Product List | Glossary On
Versions: 1 2 3 4 5 6 7 8 9 10 11 12 13 14 15 16 17 18 19 20 21 22 23 24 25 26 27 28 29 30 31 32 33 34 35 36 37 38 39 40 41 42 43 44 45 46 47 48
000
FTUS45 KBOU 020634 AAA
TAFDEN
TAF AMD
KDEN 020634Z 0207/0312 15007KT P6SM FEW060 BKN090
     FM020900 17005KT P6SM SCT060 BKN080
     FM021500 13005KT P6SM SCT035 BKN060 OVC080
     FM021800 11006KT P6SM VCSH SCT035 BKN050 OVC090
     FM022100 09007KT P6SM VCSH BKN050 OVC090
     FM030200 15006KT P6SM SCT050 BKN090
     FM030600 18007KT P6SM FEW090 SCT200=

USA.gov is the U.S. government's official web portal to all federal, state and local government web resources and services.